Terminal Aerodrome Forecast
Issued by NWS

Home | Current Version | Previous Version | Text Only | Print | Product List | Glossary On
Versions: 1 2 3 4 5 6 7 8 9 10 11 12 13 14 15 16 17 18 19 20 21 22 23 24 25 26 27 28 29 30 31 32 33
000
FTAK31 PANC 180032 AAA
TAFAIL
TAF AMD
PAIL 180032Z 1801/1824 VRB05KT P6SM -SHRA SCT035 OVC050
     FM180900 06004KT P6SM -RA BKN030 OVC040
     FM181700 29005KT P6SM VCSH BKN050=

USA.gov is the U.S. government's official web portal to all federal, state and local government web resources and services.